Campanya meteocatpedra

Dades EMA Gandesa

?
?
Resum diari 22:30 TU
Dades diàries de l'estació meteorològica
Temperatura mitjana 23.0 °C
Temperatura màxima 30.7 °C 12:13 TU
Temperatura mínima 13.4 °C 3:39 TU
Humitat relativa mitjana 45%
Precipitació acumulada 0.0 mm
Ratxa màxima del vent (2 m) 34.2 km/h - 178º 17:12 TU
Irradiació solar global 30.5 MJ/m2

El tram horari està expressat en Temps Universal (TU). Cal sumar una hora en horari d'hivern i dues en horari d'estiu per passar a l'hora oficial.

Gandesa

Metadades estació meteorol´gica
Municipi Gandesa
Comarca Terra Alta
Altitud 349 m
Data alta 30.11.2011
Estat actual Operativa
Dades de període
Període
TU
TM
°C
TX
°C
TN
°C
HRM
%
PPT
mm
VVM (2 m)
km/h
DVM (2 m)
graus
VVX (2 m)
km/h
RS
W/m2
00:00 - 00:30 18.6 19.0 18.1 61 0.0 4.7 116 9.7 0
00:30 - 01:00 17.5 18.0 17.1 65 0.0 2.2 82 8.3 0
01:00 - 01:30 16.7 17.4 16.2 67 0.0 1.1 357 3.2 0
01:30 - 02:00 15.8 16.6 15.3 71 0.0 1.8 98 7.2 0
02:00 - 02:30 15.5 16.1 14.7 73 0.0 2.9 134 6.8 0
02:30 - 03:00 14.5 14.9 14.1 77 0.0 0.7 205 3.6 0
03:00 - 03:30 14.2 14.3 13.8 78 0.0 0.7 98 3.6 0
03:30 - 04:00 13.8 14.2 13.4 80 0.0 1.4 326 4.0 0
04:00 - 04:30 14.1 14.5 13.9 80 0.0 0.7 267 6.1 0
04:30 - 05:00 14.2 14.7 13.8 79 0.0 0.7 258 4.0 14
05:00 - 05:30 14.3 14.9 13.8 80 0.0 1.1 227 4.0 68
05:30 - 06:00 16.0 17.0 15.1 74 0.0 1.4 195 3.2 148
06:00 - 06:30 17.9 19.1 17.0 67 0.0 2.2 212 5.0 240
06:30 - 07:00 19.8 20.1 19.2 61 0.0 2.5 241 7.2 339
07:00 - 07:30 20.8 21.7 20.2 57 0.0 4.0 219 8.3 436
07:30 - 08:00 22.7 23.6 21.8 48 0.0 2.5 220 7.9 576
08:00 - 08:30 23.9 24.4 23.3 44 0.0 2.5 269 7.2 629
08:30 - 09:00 25.4 26.4 24.4 37 0.0 2.2 207 7.6 707
09:00 - 09:30 26.9 27.3 26.0 32 0.0 2.9 154 9.0 777
09:30 - 10:00 28.0 28.5 27.5 27 0.0 5.8 156 16.6 848
10:00 - 10:30 28.7 29.0 28.3 25 0.0 6.8 157 15.5 904
10:30 - 11:00 29.1 29.5 28.4 24 0.0 8.3 170 18.7 942
11:00 - 11:30 29.3 29.6 29.0 24 0.0 7.6 153 19.1 971
11:30 - 12:00 29.6 30.1 29.1 23 0.0 7.9 154 16.6 985
12:00 - 12:30 30.2 30.7 29.7 22 0.0 7.9 156 17.3 984
12:30 - 13:00 30.1 30.6 29.6 23 0.0 7.9 149 19.1 964
13:00 - 13:30 30.3 30.7 29.9 22 0.0 9.4 146 18.0 941
13:30 - 14:00 30.2 30.7 29.9 23 0.0 9.7 150 24.1 898
14:00 - 14:30 29.9 30.2 29.7 26 0.0 9.7 156 22.7 840
14:30 - 15:00 29.1 30.0 28.6 27 0.0 10.4 150 25.2 777
15:00 - 15:30 29.0 29.6 28.6 27 0.0 10.4 155 25.9 704
15:30 - 16:00 28.7 29.1 28.5 26 0.0 13.0 158 26.3 618
16:00 - 16:30 28.4 28.7 27.9 26 0.0 13.7 157 29.5 524
16:30 - 17:00 27.8 28.1 27.4 27 0.0 12.6 153 31.0 426
17:00 - 17:30 26.9 27.4 26.6 29 0.0 14.0 155 34.2 327
17:30 - 18:00 26.0 26.5 25.6 32 0.0 12.6 154 28.1 228
18:00 - 18:30 25.3 25.6 24.8 32 0.0 11.5 153 24.1 132
18:30 - 19:00 24.4 24.8 24.0 33 0.0 12.6 154 28.4 52
19:00 - 19:30 23.6 24.0 23.1 36 0.0 7.9 152 25.2 5
19:30 - 20:00 22.7 23.0 22.2 38 0.0 2.9 181 9.0 0
20:00 - 20:30 22.2 22.7 21.6 40 0.0 4.0 96 12.6 0
20:30 - 21:00 21.7 22.1 21.3 42 0.0 4.3 84 9.7 0
21:00 - 21:30 21.5 21.8 21.1 42 0.0 3.2 104 9.4 0
21:30 - 22:00 20.9 21.5 20.5 44 0.0 1.8 318 6.5 0
22:00 - 22:30 20.7 21.3 20.1 44 0.0 3.2 92 8.3 0
22:30 - 23:00 19.6 20.4 19.2 48 0.0 2.2 86 7.2 0

Les dades en taronja només han passat un control de qualitat automàtic. Resta pendent la seva validació definitiva.